sensor_id;sensor_type;location;lat;lon;timestamp;P1;durP1;ratioP1;P2;durP2;ratioP2
52380;SDS011;38310;52.796;6.942;2022-08-03T00:00:00;13.45;;;6.40;;
52380;SDS011;38310;52.796;6.942;2022-08-03T00:02:26;16.00;;;6.72;;
52380;SDS011;38310;52.796;6.942;2022-08-03T00:04:52;11.90;;;5.85;;
52380;SDS011;38310;52.796;6.942;2022-08-03T00:07:17;12.57;;;5.45;;
52380;SDS011;38310;52.796;6.942;2022-08-03T00:09:43;11.95;;;5.03;;
52380;SDS011;38310;52.796;6.942;2022-08-03T00:12:09;12.43;;;4.70;;
52380;SDS011;38310;52.796;6.942;2022-08-03T00:14:35;9.80;;;4.68;;
52380;SDS011;38310;52.796;6.942;2022-08-03T00:17:01;6.95;;;5.07;;
52380;SDS011;38310;52.796;6.942;2022-08-03T00:19:27;10.77;;;4.85;;
52380;SDS011;38310;52.796;6.942;2022-08-03T00:21:53;9.93;;;4.57;;
52380;SDS011;38310;52.796;6.942;2022-08-03T00:24:19;12.23;;;5.40;;
52380;SDS011;38310;52.796;6.942;2022-08-03T00:26:44;8.80;;;4.80;;
52380;SDS011;38310;52.796;6.942;2022-08-03T00:29:10;12.18;;;5.13;;
52380;SDS011;38310;52.796;6.942;2022-08-03T00:31:36;8.73;;;5.28;;
52380;SDS011;38310;52.796;6.942;2022-08-03T00:34:02;12.48;;;6.05;;
52380;SDS011;38310;52.796;6.942;2022-08-03T00:36:27;10.18;;;5.22;;
52380;SDS011;38310;52.796;6.942;2022-08-03T00:38:53;11.80;;;5.95;;
52380;SDS011;38310;52.796;6.942;2022-08-03T00:41:20;18.13;;;8.45;;
52380;SDS011;38310;52.796;6.942;2022-08-03T00:43:46;17.55;;;10.40;;
52380;SDS011;38310;52.796;6.942;2022-08-03T00:46:12;17.40;;;11.70;;
52380;SDS011;38310;52.796;6.942;2022-08-03T00:48:38;19.23;;;11.20;;
52380;SDS011;38310;52.796;6.942;2022-08-03T00:51:03;20.95;;;11.45;;
52380;SDS011;38310;52.796;6.942;2022-08-03T00:53:29;14.13;;;8.93;;
52380;SDS011;38310;52.796;6.942;2022-08-03T00:55:56;13.95;;;9.30;;
52380;SDS011;38310;52.796;6.942;2022-08-03T00:58:22;13.10;;;9.77;;
52380;SDS011;38310;52.796;6.942;2022-08-03T01:00:48;13.85;;;9.57;;
52380;SDS011;38310;52.796;6.942;2022-08-03T01:03:14;14.13;;;8.50;;
52380;SDS011;38310;52.796;6.942;2022-08-03T01:14:03;15.13;;;7.60;;
52380;SDS011;38310;52.796;6.942;2022-08-03T01:25:02;11.48;;;6.45;;
52380;SDS011;38310;52.796;6.942;2022-08-03T01:27:45;13.27;;;6.22;;
52380;SDS011;38310;52.796;6.942;2022-08-03T01:30:22;13.87;;;7.03;;
52380;SDS011;38310;52.796;6.942;2022-08-03T01:38:23;12.50;;;6.13;;
52380;SDS011;38310;52.796;6.942;2022-08-03T01:40:56;14.23;;;6.65;;
52380;SDS011;38310;52.796;6.942;2022-08-03T01:43:26;9.25;;;5.13;;
52380;SDS011;38310;52.796;6.942;2022-08-03T01:45:54;9.95;;;4.68;;
52380;SDS011;38310;52.796;6.942;2022-08-03T01:48:22;12.32;;;5.43;;
52380;SDS011;38310;52.796;6.942;2022-08-03T01:50:48;10.95;;;5.35;;
52380;SDS011;38310;52.796;6.942;2022-08-03T01:53:16;8.23;;;4.57;;
52380;SDS011;38310;52.796;6.942;2022-08-03T01:55:45;7.72;;;4.47;;
52380;SDS011;38310;52.796;6.942;2022-08-03T01:58:14;9.02;;;4.50;;
52380;SDS011;38310;52.796;6.942;2022-08-03T02:00:41;11.68;;;4.57;;
52380;SDS011;38310;52.796;6.942;2022-08-03T02:03:08;11.38;;;4.72;;
52380;SDS011;38310;52.796;6.942;2022-08-03T02:05:38;6.65;;;4.47;;
52380;SDS011;38310;52.796;6.942;2022-08-03T02:08:05;9.85;;;4.82;;
52380;SDS011;38310;52.796;6.942;2022-08-03T02:10:33;9.52;;;4.70;;
52380;SDS011;38310;52.796;6.942;2022-08-03T02:13:02;10.73;;;4.65;;
52380;SDS011;38310;52.796;6.942;2022-08-03T02:15:30;8.75;;;4.97;;
52380;SDS011;38310;52.796;6.942;2022-08-03T02:17:56;14.07;;;4.60;;
52380;SDS011;38310;52.796;6.942;2022-08-03T02:20:24;8.65;;;4.93;;
52380;SDS011;38310;52.796;6.942;2022-08-03T02:22:51;8.35;;;3.75;;
52380;SDS011;38310;52.796;6.942;2022-08-03T02:25:17;10.48;;;4.10;;
52380;SDS011;38310;52.796;6.942;2022-08-03T02:28:05;7.82;;;4.45;;
52380;SDS011;38310;52.796;6.942;2022-08-03T02:30:35;6.25;;;4.05;;
52380;SDS011;38310;52.796;6.942;2022-08-03T02:33:03;6.70;;;4.65;;
52380;SDS011;38310;52.796;6.942;2022-08-03T02:35:34;9.30;;;4.93;;
52380;SDS011;38310;52.796;6.942;2022-08-03T02:38:01;13.18;;;4.63;;
52380;SDS011;38310;52.796;6.942;2022-08-03T02:40:29;9.73;;;4.40;;
52380;SDS011;38310;52.796;6.942;2022-08-03T02:42:58;7.40;;;4.50;;
52380;SDS011;38310;52.796;6.942;2022-08-03T02:45:28;11.40;;;4.90;;
52380;SDS011;38310;52.796;6.942;2022-08-03T02:47:55;10.90;;;5.47;;
52380;SDS011;38310;52.796;6.942;2022-08-03T02:50:26;9.82;;;5.32;;
52380;SDS011;38310;52.796;6.942;2022-08-03T02:52:54;8.77;;;5.10;;
52380;SDS011;38310;52.796;6.942;2022-08-03T02:55:21;12.65;;;4.95;;
52380;SDS011;38310;52.796;6.942;2022-08-03T02:57:50;11.18;;;4.88;;
52380;SDS011;38310;52.796;6.942;2022-08-03T03:00:16;12.93;;;4.72;;
52380;SDS011;38310;52.796;6.942;2022-08-03T03:02:42;10.57;;;5.53;;
52380;SDS011;38310;52.796;6.942;2022-08-03T03:05:09;11.38;;;5.10;;
52380;SDS011;38310;52.796;6.942;2022-08-03T03:07:37;9.65;;;5.32;;
52380;SDS011;38310;52.796;6.942;2022-08-03T03:10:04;9.68;;;5.55;;
52380;SDS011;38310;52.796;6.942;2022-08-03T03:12:32;11.95;;;4.65;;
52380;SDS011;38310;52.796;6.942;2022-08-03T03:14:59;9.30;;;4.43;;
52380;SDS011;38310;52.796;6.942;2022-08-03T03:17:24;9.57;;;5.18;;
52380;SDS011;38310;52.796;6.942;2022-08-03T03:19:51;8.32;;;4.68;;
52380;SDS011;38310;52.796;6.942;2022-08-03T03:22:19;8.95;;;4.53;;
52380;SDS011;38310;52.796;6.942;2022-08-03T03:24:46;7.97;;;4.40;;
52380;SDS011;38310;52.796;6.942;2022-08-03T03:27:15;8.68;;;4.43;;
52380;SDS011;38310;52.796;6.942;2022-08-03T03:29:41;8.80;;;4.55;;
52380;SDS011;38310;52.796;6.942;2022-08-03T03:32:07;7.60;;;4.40;;
52380;SDS011;38310;52.796;6.942;2022-08-03T03:34:34;10.75;;;3.92;;
52380;SDS011;38310;52.796;6.942;2022-08-03T03:37:00;10.93;;;4.38;;
52380;SDS011;38310;52.796;6.942;2022-08-03T03:39:26;9.35;;;3.90;;
52380;SDS011;38310;52.796;6.942;2022-08-03T03:41:52;6.22;;;3.60;;
52380;SDS011;38310;52.796;6.942;2022-08-03T03:44:18;7.82;;;3.72;;
52380;SDS011;38310;52.796;6.942;2022-08-03T03:46:44;9.35;;;3.80;;
52380;SDS011;38310;52.796;6.942;2022-08-03T03:49:10;10.38;;;3.80;;
52380;SDS011;38310;52.796;6.942;2022-08-03T03:51:36;8.10;;;3.53;;
52380;SDS011;38310;52.796;6.942;2022-08-03T03:54:02;7.18;;;3.17;;
52380;SDS011;38310;52.796;6.942;2022-08-03T03:56:31;12.48;;;3.78;;
52380;SDS011;38310;52.796;6.942;2022-08-03T03:58:57;8.48;;;3.33;;
52380;SDS011;38310;52.796;6.942;2022-08-03T04:01:23;7.43;;;3.60;;
52380;SDS011;38310;52.796;6.942;2022-08-03T04:03:49;7.05;;;3.20;;
52380;SDS011;38310;52.796;6.942;2022-08-03T04:06:15;8.90;;;3.92;;
52380;SDS011;38310;52.796;6.942;2022-08-03T04:09:00;9.02;;;3.90;;
52380;SDS011;38310;52.796;6.942;2022-08-03T04:11:52;8.35;;;4.00;;
52380;SDS011;38310;52.796;6.942;2022-08-03T04:14:26;8.75;;;3.88;;
52380;SDS011;38310;52.796;6.942;2022-08-03T04:16:58;7.68;;;3.47;;
52380;SDS011;38310;52.796;6.942;2022-08-03T04:19:30;6.55;;;3.53;;
52380;SDS011;38310;52.796;6.942;2022-08-03T04:21:58;9.50;;;3.70;;
52380;SDS011;38310;52.796;6.942;2022-08-03T04:24:27;8.88;;;3.80;;
52380;SDS011;38310;52.796;6.942;2022-08-03T04:26:56;9.10;;;4.05;;
52380;SDS011;38310;52.796;6.942;2022-08-03T04:29:25;7.47;;;3.70;;
52380;SDS011;38310;52.796;6.942;2022-08-03T04:31:53;7.30;;;4.28;;
52380;SDS011;38310;52.796;6.942;2022-08-03T04:34:20;11.85;;;3.70;;
52380;SDS011;38310;52.796;6.942;2022-08-03T04:36:49;8.68;;;4.07;;
52380;SDS011;38310;52.796;6.942;2022-08-03T04:39:25;10.30;;;4.38;;
52380;SDS011;38310;52.796;6.942;2022-08-03T04:41:54;10.98;;;3.63;;
52380;SDS011;38310;52.796;6.942;2022-08-03T04:44:23;7.25;;;3.83;;
52380;SDS011;38310;52.796;6.942;2022-08-03T04:46:50;11.57;;;3.75;;
52380;SDS011;38310;52.796;6.942;2022-08-03T04:49:19;6.75;;;3.60;;
52380;SDS011;38310;52.796;6.942;2022-08-03T04:51:46;10.30;;;4.18;;
52380;SDS011;38310;52.796;6.942;2022-08-03T04:54:14;9.20;;;3.92;;
52380;SDS011;38310;52.796;6.942;2022-08-03T04:56:41;10.30;;;4.47;;
52380;SDS011;38310;52.796;6.942;2022-08-03T04:59:07;13.25;;;4.65;;
52380;SDS011;38310;52.796;6.942;2022-08-03T05:01:34;10.50;;;3.95;;
52380;SDS011;38310;52.796;6.942;2022-08-03T05:04:01;7.28;;;3.33;;
52380;SDS011;38310;52.796;6.942;2022-08-03T05:06:26;8.68;;;4.22;;
52380;SDS011;38310;52.796;6.942;2022-08-03T05:08:52;7.90;;;4.55;;
52380;SDS011;38310;52.796;6.942;2022-08-03T05:11:19;9.57;;;4.32;;
52380;SDS011;38310;52.796;6.942;2022-08-03T05:13:44;10.23;;;4.57;;
52380;SDS011;38310;52.796;6.942;2022-08-03T05:16:10;9.35;;;4.47;;
52380;SDS011;38310;52.796;6.942;2022-08-03T05:18:37;6.82;;;4.50;;
52380;SDS011;38310;52.796;6.942;2022-08-03T05:21:03;12.77;;;4.43;;
52380;SDS011;38310;52.796;6.942;2022-08-03T05:23:29;11.10;;;5.10;;
52380;SDS011;38310;52.796;6.942;2022-08-03T05:25:55;9.13;;;4.00;;
52380;SDS011;38310;52.796;6.942;2022-08-03T05:28:21;11.38;;;4.38;;
52380;SDS011;38310;52.796;6.942;2022-08-03T05:30:47;9.63;;;4.32;;
52380;SDS011;38310;52.796;6.942;2022-08-03T05:33:13;11.45;;;4.80;;
52380;SDS011;38310;52.796;6.942;2022-08-03T05:35:39;10.40;;;4.28;;
52380;SDS011;38310;52.796;6.942;2022-08-03T05:38:04;13.50;;;4.97;;
52380;SDS011;38310;52.796;6.942;2022-08-03T05:40:30;10.60;;;3.75;;
52380;SDS011;38310;52.796;6.942;2022-08-03T05:42:57;10.73;;;4.60;;
52380;SDS011;38310;52.796;6.942;2022-08-03T05:45:23;12.50;;;4.05;;
52380;SDS011;38310;52.796;6.942;2022-08-03T05:47:49;13.07;;;4.53;;
52380;SDS011;38310;52.796;6.942;2022-08-03T05:50:16;11.05;;;4.07;;
52380;SDS011;38310;52.796;6.942;2022-08-03T05:52:43;8.32;;;3.78;;
52380;SDS011;38310;52.796;6.942;2022-08-03T05:55:10;11.13;;;3.88;;
52380;SDS011;38310;52.796;6.942;2022-08-03T05:57:36;10.07;;;3.85;;
52380;SDS011;38310;52.796;6.942;2022-08-03T06:00:06;12.52;;;4.28;;
52380;SDS011;38310;52.796;6.942;2022-08-03T06:02:34;11.43;;;5.03;;
52380;SDS011;38310;52.796;6.942;2022-08-03T06:05:00;11.95;;;4.45;;
52380;SDS011;38310;52.796;6.942;2022-08-03T06:07:26;12.82;;;4.28;;
52380;SDS011;38310;52.796;6.942;2022-08-03T06:09:52;9.93;;;3.92;;
52380;SDS011;38310;52.796;6.942;2022-08-03T06:12:18;13.10;;;4.15;;
52380;SDS011;38310;52.796;6.942;2022-08-03T06:14:44;12.88;;;4.70;;
52380;SDS011;38310;52.796;6.942;2022-08-03T06:17:10;10.38;;;4.25;;
52380;SDS011;38310;52.796;6.942;2022-08-03T06:19:35;8.55;;;4.38;;
52380;SDS011;38310;52.796;6.942;2022-08-03T06:22:02;12.75;;;4.72;;
52380;SDS011;38310;52.796;6.942;2022-08-03T06:24:28;11.75;;;4.70;;
52380;SDS011;38310;52.796;6.942;2022-08-03T06:26:54;9.35;;;4.20;;
52380;SDS011;38310;52.796;6.942;2022-08-03T06:29:20;13.57;;;5.13;;
52380;SDS011;38310;52.796;6.942;2022-08-03T06:31:46;10.23;;;4.60;;
52380;SDS011;38310;52.796;6.942;2022-08-03T06:34:11;12.80;;;4.97;;
52380;SDS011;38310;52.796;6.942;2022-08-03T06:36:37;14.95;;;4.65;;
52380;SDS011;38310;52.796;6.942;2022-08-03T06:39:03;11.27;;;4.57;;
52380;SDS011;38310;52.796;6.942;2022-08-03T06:41:29;16.92;;;4.88;;
52380;SDS011;38310;52.796;6.942;2022-08-03T06:43:55;8.15;;;4.05;;
52380;SDS011;38310;52.796;6.942;2022-08-03T06:46:20;12.30;;;4.13;;
52380;SDS011;38310;52.796;6.942;2022-08-03T06:48:46;10.85;;;4.35;;
52380;SDS011;38310;52.796;6.942;2022-08-03T06:51:12;13.75;;;4.63;;
52380;SDS011;38310;52.796;6.942;2022-08-03T06:53:38;10.77;;;3.60;;
52380;SDS011;38310;52.796;6.942;2022-08-03T06:56:04;10.45;;;4.00;;
52380;SDS011;38310;52.796;6.942;2022-08-03T06:58:30;12.77;;;4.75;;
52380;SDS011;38310;52.796;6.942;2022-08-03T07:00:56;10.95;;;3.58;;
52380;SDS011;38310;52.796;6.942;2022-08-03T07:03:21;12.23;;;3.78;;
52380;SDS011;38310;52.796;6.942;2022-08-03T07:05:47;12.65;;;3.75;;
52380;SDS011;38310;52.796;6.942;2022-08-03T07:08:14;9.43;;;3.50;;
52380;SDS011;38310;52.796;6.942;2022-08-03T07:10:41;10.63;;;3.20;;
52380;SDS011;38310;52.796;6.942;2022-08-03T07:13:07;14.82;;;4.53;;
52380;SDS011;38310;52.796;6.942;2022-08-03T07:15:33;8.10;;;3.83;;
52380;SDS011;38310;52.796;6.942;2022-08-03T07:17:59;9.27;;;3.47;;
52380;SDS011;38310;52.796;6.942;2022-08-03T07:20:24;13.45;;;3.83;;
52380;SDS011;38310;52.796;6.942;2022-08-03T07:22:50;11.80;;;3.78;;
52380;SDS011;38310;52.796;6.942;2022-08-03T07:25:16;15.52;;;4.43;;
52380;SDS011;38310;52.796;6.942;2022-08-03T07:27:42;11.00;;;4.05;;
52380;SDS011;38310;52.796;6.942;2022-08-03T07:30:09;11.75;;;4.00;;
52380;SDS011;38310;52.796;6.942;2022-08-03T07:32:35;11.95;;;4.00;;
52380;SDS011;38310;52.796;6.942;2022-08-03T07:35:02;12.55;;;4.03;;
52380;SDS011;38310;52.796;6.942;2022-08-03T07:37:28;13.50;;;4.53;;
52380;SDS011;38310;52.796;6.942;2022-08-03T07:39:54;14.13;;;4.30;;
52380;SDS011;38310;52.796;6.942;2022-08-03T07:42:20;9.85;;;3.95;;
52380;SDS011;38310;52.796;6.942;2022-08-03T07:44:48;10.73;;;4.35;;
52380;SDS011;38310;52.796;6.942;2022-08-03T07:47:17;12.05;;;3.80;;
52380;SDS011;38310;52.796;6.942;2022-08-03T07:49:44;11.88;;;3.92;;
52380;SDS011;38310;52.796;6.942;2022-08-03T07:52:09;13.13;;;4.07;;
52380;SDS011;38310;52.796;6.942;2022-08-03T07:54:53;14.45;;;4.18;;
52380;SDS011;38310;52.796;6.942;2022-08-03T07:57:19;12.05;;;4.78;;
52380;SDS011;38310;52.796;6.942;2022-08-03T07:59:45;13.60;;;5.13;;
52380;SDS011;38310;52.796;6.942;2022-08-03T08:02:11;15.13;;;4.15;;
52380;SDS011;38310;52.796;6.942;2022-08-03T08:04:38;13.30;;;4.60;;
52380;SDS011;38310;52.796;6.942;2022-08-03T08:07:04;11.85;;;3.03;;
52380;SDS011;38310;52.796;6.942;2022-08-03T08:09:30;12.32;;;3.45;;
52380;SDS011;38310;52.796;6.942;2022-08-03T08:11:56;10.25;;;3.40;;
52380;SDS011;38310;52.796;6.942;2022-08-03T08:14:22;11.43;;;3.78;;
52380;SDS011;38310;52.796;6.942;2022-08-03T08:16:47;11.85;;;3.80;;
52380;SDS011;38310;52.796;6.942;2022-08-03T08:19:13;16.33;;;4.00;;
52380;SDS011;38310;52.796;6.942;2022-08-03T08:21:41;10.73;;;3.67;;
52380;SDS011;38310;52.796;6.942;2022-08-03T08:24:07;13.15;;;3.83;;
52380;SDS011;38310;52.796;6.942;2022-08-03T08:26:33;16.42;;;3.95;;
52380;SDS011;38310;52.796;6.942;2022-08-03T08:28:59;11.65;;;3.90;;
52380;SDS011;38310;52.796;6.942;2022-08-03T08:31:25;12.52;;;4.13;;
52380;SDS011;38310;52.796;6.942;2022-08-03T08:33:50;11.73;;;3.60;;
52380;SDS011;38310;52.796;6.942;2022-08-03T08:36:16;17.02;;;4.05;;
52380;SDS011;38310;52.796;6.942;2022-08-03T08:38:42;17.08;;;4.35;;
52380;SDS011;38310;52.796;6.942;2022-08-03T08:41:09;9.52;;;3.50;;
52380;SDS011;38310;52.796;6.942;2022-08-03T08:43:36;17.42;;;4.22;;
52380;SDS011;38310;52.796;6.942;2022-08-03T08:46:01;11.40;;;3.60;;
52380;SDS011;38310;52.796;6.942;2022-08-03T08:48:27;16.45;;;4.38;;
52380;SDS011;38310;52.796;6.942;2022-08-03T08:50:55;13.77;;;3.45;;
52380;SDS011;38310;52.796;6.942;2022-08-03T08:53:22;14.30;;;3.78;;
52380;SDS011;38310;52.796;6.942;2022-08-03T08:55:51;18.90;;;3.88;;
52380;SDS011;38310;52.796;6.942;2022-08-03T08:58:19;11.95;;;3.42;;
52380;SDS011;38310;52.796;6.942;2022-08-03T09:00:47;13.05;;;3.15;;
52380;SDS011;38310;52.796;6.942;2022-08-03T09:03:14;19.08;;;4.47;;
52380;SDS011;38310;52.796;6.942;2022-08-03T09:05:42;15.00;;;3.80;;
52380;SDS011;38310;52.796;6.942;2022-08-03T09:08:08;12.25;;;3.53;;
52380;SDS011;38310;52.796;6.942;2022-08-03T09:10:34;14.25;;;3.92;;
52380;SDS011;38310;52.796;6.942;2022-08-03T09:13:00;15.02;;;3.75;;
52380;SDS011;38310;52.796;6.942;2022-08-03T09:15:30;15.40;;;4.00;;
52380;SDS011;38310;52.796;6.942;2022-08-03T09:17:58;13.77;;;3.40;;
52380;SDS011;38310;52.796;6.942;2022-08-03T09:20:26;14.52;;;3.95;;
52380;SDS011;38310;52.796;6.942;2022-08-03T09:23:07;13.35;;;3.40;;
52380;SDS011;38310;52.796;6.942;2022-08-03T09:25:37;12.50;;;3.58;;
52380;SDS011;38310;52.796;6.942;2022-08-03T09:30:32;16.40;;;4.00;;
52380;SDS011;38310;52.796;6.942;2022-08-03T09:33:03;13.73;;;3.70;;
52380;SDS011;38310;52.796;6.942;2022-08-03T09:35:30;13.52;;;3.65;;
52380;SDS011;38310;52.796;6.942;2022-08-03T09:38:09;13.23;;;4.32;;
52380;SDS011;38310;52.796;6.942;2022-08-03T09:40:38;11.35;;;3.53;;
52380;SDS011;38310;52.796;6.942;2022-08-03T09:43:05;18.55;;;3.60;;
52380;SDS011;38310;52.796;6.942;2022-08-03T09:45:38;12.70;;;3.53;;
52380;SDS011;38310;52.796;6.942;2022-08-03T09:53:20;10.35;;;3.20;;
52380;SDS011;38310;52.796;6.942;2022-08-03T09:58:23;11.32;;;2.95;;
52380;SDS011;38310;52.796;6.942;2022-08-03T10:01:00;15.63;;;3.00;;
52380;SDS011;38310;52.796;6.942;2022-08-03T10:03:31;14.35;;;3.10;;
52380;SDS011;38310;52.796;6.942;2022-08-03T10:05:59;10.63;;;2.83;;
52380;SDS011;38310;52.796;6.942;2022-08-03T10:08:46;14.32;;;3.35;;
52380;SDS011;38310;52.796;6.942;2022-08-03T10:11:29;10.05;;;3.13;;
52380;SDS011;38310;52.796;6.942;2022-08-03T10:13:56;14.20;;;2.83;;
52380;SDS011;38310;52.796;6.942;2022-08-03T10:16:22;13.55;;;3.00;;
52380;SDS011;38310;52.796;6.942;2022-08-03T10:18:48;17.52;;;3.13;;
52380;SDS011;38310;52.796;6.942;2022-08-03T10:21:15;14.00;;;3.65;;
52380;SDS011;38310;52.796;6.942;2022-08-03T10:23:43;12.45;;;3.22;;
52380;SDS011;38310;52.796;6.942;2022-08-03T10:26:11;12.98;;;3.47;;
52380;SDS011;38310;52.796;6.942;2022-08-03T10:28:40;10.93;;;2.70;;
52380;SDS011;38310;52.796;6.942;2022-08-03T10:31:12;11.60;;;3.58;;
52380;SDS011;38310;52.796;6.942;2022-08-03T10:33:41;11.80;;;3.05;;
52380;SDS011;38310;52.796;6.942;2022-08-03T10:36:08;11.25;;;3.15;;
52380;SDS011;38310;52.796;6.942;2022-08-03T10:38:48;10.63;;;2.65;;
52380;SDS011;38310;52.796;6.942;2022-08-03T10:41:22;12.82;;;2.72;;
52380;SDS011;38310;52.796;6.942;2022-08-03T10:46:17;11.85;;;3.00;;
52380;SDS011;38310;52.796;6.942;2022-08-03T10:48:45;11.93;;;2.83;;
52380;SDS011;38310;52.796;6.942;2022-08-03T10:51:12;12.15;;;2.67;;
52380;SDS011;38310;52.796;6.942;2022-08-03T10:53:39;16.15;;;2.78;;
52380;SDS011;38310;52.796;6.942;2022-08-03T10:59:17;11.43;;;2.53;;
52380;SDS011;38310;52.796;6.942;2022-08-03T11:04:19;12.85;;;3.10;;
52380;SDS011;38310;52.796;6.942;2022-08-03T11:06:46;14.38;;;3.10;;
52380;SDS011;38310;52.796;6.942;2022-08-03T11:09:13;8.90;;;2.55;;
52380;SDS011;38310;52.796;6.942;2022-08-03T11:11:41;11.27;;;3.08;;
52380;SDS011;38310;52.796;6.942;2022-08-03T11:14:09;12.02;;;2.47;;
52380;SDS011;38310;52.796;6.942;2022-08-03T11:16:36;16.00;;;3.30;;
52380;SDS011;38310;52.796;6.942;2022-08-03T11:19:11;12.38;;;3.08;;
52380;SDS011;38310;52.796;6.942;2022-08-03T11:32:49;16.50;;;3.20;;
52380;SDS011;38310;52.796;6.942;2022-08-03T11:35:12;12.57;;;2.55;;
52380;SDS011;38310;52.796;6.942;2022-08-03T11:42:58;12.90;;;2.95;;
52380;SDS011;38310;52.796;6.942;2022-08-03T11:45:24;11.68;;;2.67;;
52380;SDS011;38310;52.796;6.942;2022-08-03T11:47:52;13.43;;;2.70;;
52380;SDS011;38310;52.796;6.942;2022-08-03T11:50:19;16.40;;;3.08;;
52380;SDS011;38310;52.796;6.942;2022-08-03T11:52:46;13.20;;;3.15;;
52380;SDS011;38310;52.796;6.942;2022-08-03T11:55:13;10.13;;;2.70;;
52380;SDS011;38310;52.796;6.942;2022-08-03T11:57:41;10.75;;;2.85;;
52380;SDS011;38310;52.796;6.942;2022-08-03T12:00:20;11.57;;;2.88;;
52380;SDS011;38310;52.796;6.942;2022-08-03T12:02:54;14.88;;;2.72;;
52380;SDS011;38310;52.796;6.942;2022-08-03T12:05:31;15.60;;;2.60;;
52380;SDS011;38310;52.796;6.942;2022-08-03T12:08:06;15.40;;;3.08;;
52380;SDS011;38310;52.796;6.942;2022-08-03T12:10:33;11.38;;;2.65;;
52380;SDS011;38310;52.796;6.942;2022-08-03T12:13:00;12.95;;;2.50;;
52380;SDS011;38310;52.796;6.942;2022-08-03T12:15:30;11.85;;;2.95;;
52380;SDS011;38310;52.796;6.942;2022-08-03T12:18:00;12.45;;;2.58;;
52380;SDS011;38310;52.796;6.942;2022-08-03T12:20:29;10.13;;;2.42;;
52380;SDS011;38310;52.796;6.942;2022-08-03T12:23:01;10.82;;;2.63;;
52380;SDS011;38310;52.796;6.942;2022-08-03T12:25:28;12.32;;;2.60;;
52380;SDS011;38310;52.796;6.942;2022-08-03T12:28:04;12.27;;;3.13;;
52380;SDS011;38310;52.796;6.942;2022-08-03T12:30:35;11.18;;;2.55;;
52380;SDS011;38310;52.796;6.942;2022-08-03T12:33:12;15.90;;;2.90;;
52380;SDS011;38310;52.796;6.942;2022-08-03T12:36:22;13.43;;;2.97;;
52380;SDS011;38310;52.796;6.942;2022-08-03T12:38:40;13.73;;;3.05;;
52380;SDS011;38310;52.796;6.942;2022-08-03T12:41:08;11.40;;;2.22;;
52380;SDS011;38310;52.796;6.942;2022-08-03T12:43:46;15.38;;;2.90;;
52380;SDS011;38310;52.796;6.942;2022-08-03T12:46:14;14.05;;;2.85;;
52380;SDS011;38310;52.796;6.942;2022-08-03T12:51:35;12.52;;;3.05;;
52380;SDS011;38310;52.796;6.942;2022-08-03T12:54:03;14.45;;;2.80;;
52380;SDS011;38310;52.796;6.942;2022-08-03T12:56:29;12.35;;;2.90;;
52380;SDS011;38310;52.796;6.942;2022-08-03T12:58:55;16.63;;;3.42;;
52380;SDS011;38310;52.796;6.942;2022-08-03T13:01:21;11.68;;;2.80;;
52380;SDS011;38310;52.796;6.942;2022-08-03T13:03:49;11.02;;;2.60;;
52380;SDS011;38310;52.796;6.942;2022-08-03T13:06:16;11.27;;;2.30;;
52380;SDS011;38310;52.796;6.942;2022-08-03T13:08:44;13.88;;;2.53;;
52380;SDS011;38310;52.796;6.942;2022-08-03T13:13:46;14.57;;;2.85;;
52380;SDS011;38310;52.796;6.942;2022-08-03T13:16:13;12.05;;;2.53;;
52380;SDS011;38310;52.796;6.942;2022-08-03T13:18:39;12.70;;;2.47;;
52380;SDS011;38310;52.796;6.942;2022-08-03T13:21:05;12.38;;;3.60;;
52380;SDS011;38310;52.796;6.942;2022-08-03T13:23:31;14.20;;;2.70;;
52380;SDS011;38310;52.796;6.942;2022-08-03T13:25:56;10.52;;;2.88;;
52380;SDS011;38310;52.796;6.942;2022-08-03T13:28:22;13.88;;;3.22;;
52380;SDS011;38310;52.796;6.942;2022-08-03T13:30:48;11.65;;;2.60;;
52380;SDS011;38310;52.796;6.942;2022-08-03T13:33:14;13.48;;;2.50;;
52380;SDS011;38310;52.796;6.942;2022-08-03T13:35:39;11.90;;;2.78;;
52380;SDS011;38310;52.796;6.942;2022-08-03T13:38:05;13.75;;;2.70;;
52380;SDS011;38310;52.796;6.942;2022-08-03T13:40:31;9.98;;;2.70;;
52380;SDS011;38310;52.796;6.942;2022-08-03T13:42:57;10.93;;;2.70;;
52380;SDS011;38310;52.796;6.942;2022-08-03T13:45:23;17.88;;;3.25;;
52380;SDS011;38310;52.796;6.942;2022-08-03T13:47:49;10.15;;;2.55;;
52380;SDS011;38310;52.796;6.942;2022-08-03T13:50:15;10.50;;;2.58;;
52380;SDS011;38310;52.796;6.942;2022-08-03T13:52:40;16.45;;;2.60;;
52380;SDS011;38310;52.796;6.942;2022-08-03T13:55:06;15.48;;;2.70;;
52380;SDS011;38310;52.796;6.942;2022-08-03T13:57:33;13.38;;;2.70;;
52380;SDS011;38310;52.796;6.942;2022-08-03T13:59:59;11.73;;;3.15;;
52380;SDS011;38310;52.796;6.942;2022-08-03T14:02:26;12.90;;;2.92;;
52380;SDS011;38310;52.796;6.942;2022-08-03T14:04:52;11.20;;;2.47;;
52380;SDS011;38310;52.796;6.942;2022-08-03T14:07:18;11.60;;;2.25;;
52380;SDS011;38310;52.796;6.942;2022-08-03T14:09:44;13.70;;;2.72;;
52380;SDS011;38310;52.796;6.942;2022-08-03T14:12:10;9.95;;;1.95;;
52380;SDS011;38310;52.796;6.942;2022-08-03T14:14:36;13.18;;;2.63;;
52380;SDS011;38310;52.796;6.942;2022-08-03T14:17:02;8.55;;;2.40;;
52380;SDS011;38310;52.796;6.942;2022-08-03T14:19:28;12.65;;;2.55;;
52380;SDS011;38310;52.796;6.942;2022-08-03T14:21:53;17.15;;;2.80;;
52380;SDS011;38310;52.796;6.942;2022-08-03T14:24:19;10.98;;;2.15;;
52380;SDS011;38310;52.796;6.942;2022-08-03T14:26:45;12.55;;;2.83;;
52380;SDS011;38310;52.796;6.942;2022-08-03T14:29:11;12.13;;;2.60;;
52380;SDS011;38310;52.796;6.942;2022-08-03T14:31:36;12.23;;;2.75;;
52380;SDS011;38310;52.796;6.942;2022-08-03T14:34:02;12.10;;;2.10;;
52380;SDS011;38310;52.796;6.942;2022-08-03T14:36:28;9.93;;;2.22;;
52380;SDS011;38310;52.796;6.942;2022-08-03T14:38:54;11.68;;;2.70;;
52380;SDS011;38310;52.796;6.942;2022-08-03T14:41:20;10.50;;;2.50;;
52380;SDS011;38310;52.796;6.942;2022-08-03T14:43:46;9.98;;;2.40;;
52380;SDS011;38310;52.796;6.942;2022-08-03T14:46:12;12.60;;;2.72;;
52380;SDS011;38310;52.796;6.942;2022-08-03T14:48:37;8.90;;;2.60;;
52380;SDS011;38310;52.796;6.942;2022-08-03T14:51:04;11.30;;;2.85;;
52380;SDS011;38310;52.796;6.942;2022-08-03T14:53:30;10.52;;;2.42;;
52380;SDS011;38310;52.796;6.942;2022-08-03T14:55:56;12.75;;;2.55;;
52380;SDS011;38310;52.796;6.942;2022-08-03T14:58:22;11.30;;;2.90;;
52380;SDS011;38310;52.796;6.942;2022-08-03T15:00:50;12.07;;;2.85;;
52380;SDS011;38310;52.796;6.942;2022-08-03T15:03:16;13.98;;;3.47;;
52380;SDS011;38310;52.796;6.942;2022-08-03T15:05:49;11.15;;;3.25;;
52380;SDS011;38310;52.796;6.942;2022-08-03T15:08:19;12.63;;;3.00;;
52380;SDS011;38310;52.796;6.942;2022-08-03T15:10:45;11.02;;;2.20;;
52380;SDS011;38310;52.796;6.942;2022-08-03T15:13:12;9.07;;;2.83;;
52380;SDS011;38310;52.796;6.942;2022-08-03T15:15:38;14.27;;;2.70;;
52380;SDS011;38310;52.796;6.942;2022-08-03T15:18:04;13.80;;;2.55;;
52380;SDS011;38310;52.796;6.942;2022-08-03T15:20:30;13.40;;;2.70;;
52380;SDS011;38310;52.796;6.942;2022-08-03T15:22:55;8.80;;;2.40;;
52380;SDS011;38310;52.796;6.942;2022-08-03T15:25:21;8.40;;;2.67;;
52380;SDS011;38310;52.796;6.942;2022-08-03T15:27:47;9.65;;;2.78;;
52380;SDS011;38310;52.796;6.942;2022-08-03T15:30:13;13.50;;;2.92;;
52380;SDS011;38310;52.796;6.942;2022-08-03T15:32:38;12.02;;;2.53;;
52380;SDS011;38310;52.796;6.942;2022-08-03T15:35:04;11.23;;;3.15;;
52380;SDS011;38310;52.796;6.942;2022-08-03T15:37:30;10.63;;;2.85;;
52380;SDS011;38310;52.796;6.942;2022-08-03T15:39:56;9.38;;;2.50;;
52380;SDS011;38310;52.796;6.942;2022-08-03T15:42:21;9.90;;;2.30;;